createdAt,value
2019-06-10T00:01:55.471Z,0.60
2019-06-10T00:04:30.824Z,0.57
2019-06-10T00:07:04.185Z,0.57
2019-06-10T00:09:37.974Z,0.77
2019-06-10T00:12:12.732Z,0.83
2019-06-10T00:14:45.395Z,0.70
2019-06-10T00:17:18.534Z,0.60
2019-06-10T00:19:51.538Z,1.03
2019-06-10T00:22:24.493Z,0.60
2019-06-10T00:24:57.543Z,0.70
2019-06-10T00:27:31.221Z,3.27
2019-06-10T00:30:06.557Z,0.50
2019-06-10T00:32:41.060Z,0.80
2019-06-10T00:35:13.714Z,0.80
2019-06-10T00:37:46.768Z,0.70
2019-06-10T00:40:21.473Z,0.80
2019-06-10T00:42:54.473Z,0.60
2019-06-10T00:45:27.662Z,0.83
2019-06-10T00:48:13.523Z,0.50
2019-06-10T00:50:35.233Z,0.50
2019-06-10T00:53:09.909Z,0.93
2019-06-10T00:55:43.114Z,0.70
2019-06-10T00:58:16.191Z,0.60
2019-06-10T01:00:51.454Z,0.60
2019-06-10T01:03:23.516Z,0.83
2019-06-10T01:05:56.539Z,0.70
2019-06-10T01:08:31.461Z,0.80
2019-06-10T01:11:09.737Z,0.60
2019-06-10T01:13:38.391Z,0.90
2019-06-10T01:16:15.440Z,0.70
2019-06-10T01:18:50.467Z,0.83
2019-06-10T01:21:22.991Z,0.83
2019-06-10T01:23:56.219Z,1.70
2019-06-10T01:26:31.052Z,1.00
2019-06-10T01:29:03.851Z,0.50
2019-06-10T01:31:36.971Z,1.10
2019-06-10T01:34:12.000Z,0.80
2019-06-10T01:36:44.565Z,0.70
2019-06-10T01:39:18.068Z,0.60
2019-06-10T01:41:51.497Z,0.90
2019-06-10T01:44:24.698Z,0.73
2019-06-10T01:46:57.725Z,0.53
2019-06-10T01:49:30.930Z,0.60
2019-06-10T01:52:04.086Z,0.60
2019-06-10T01:54:37.778Z,0.70
2019-06-10T01:57:12.529Z,0.70
2019-06-10T01:59:45.310Z,0.67
2019-06-10T02:02:23.828Z,0.80
2019-06-10T02:04:57.103Z,0.67
2019-06-10T02:07:31.962Z,0.63
2019-06-10T02:10:04.784Z,0.40
2019-06-10T02:12:38.009Z,0.77
2019-06-10T02:15:12.558Z,0.57
2019-06-10T02:17:45.698Z,0.70
2019-06-10T02:20:22.574Z,0.50
2019-06-10T02:22:53.530Z,1.03
2019-06-10T02:25:26.611Z,0.60
2019-06-10T02:28:01.063Z,0.50
2019-06-10T02:30:44.278Z,0.80
2019-06-10T02:33:12.007Z,0.50
2019-06-10T02:35:48.591Z,0.43
2019-06-10T02:38:22.522Z,0.50
2019-06-10T02:40:53.870Z,0.50
2019-06-10T02:43:31.936Z,0.80
2019-06-10T02:46:04.231Z,0.70
2019-06-10T02:48:37.224Z,0.63
2019-06-10T02:51:14.778Z,0.60
2019-06-10T02:53:45.317Z,0.53
2019-06-10T02:56:20.011Z,0.63
2019-06-10T02:58:53.611Z,0.67
2019-06-10T03:01:32.139Z,0.77
2019-06-10T03:04:04.525Z,0.60
2019-06-10T03:06:40.318Z,0.53
2019-06-10T03:09:14.094Z,0.50
2019-06-10T03:11:46.473Z,0.50
2019-06-10T03:14:19.781Z,0.60
2019-06-10T03:16:57.554Z,0.60
2019-06-10T03:19:46.569Z,0.67
2019-06-10T03:22:04.939Z,0.73
2019-06-10T03:24:38.417Z,0.90
2019-06-10T03:27:12.636Z,0.70
2019-06-10T03:29:45.776Z,0.67
2019-06-10T03:32:20.142Z,0.73
2019-06-10T03:34:54.742Z,0.80
2019-06-10T03:37:27.759Z,0.60
2019-06-10T03:40:02.491Z,0.60
2019-06-10T03:42:36.927Z,0.80
2019-06-10T03:45:15.304Z,0.70
2019-06-10T03:48:05.213Z,0.70
2019-06-10T03:50:44.732Z,0.70
2019-06-10T03:53:21.288Z,0.50
2019-06-10T03:55:56.111Z,0.90
2019-06-10T03:58:29.805Z,0.80
2019-06-10T04:01:04.349Z,0.60
2019-06-10T04:03:38.255Z,0.77
2019-06-10T04:06:12.960Z,0.80
2019-06-10T04:08:46.605Z,0.80
2019-06-10T04:11:19.846Z,0.90
2019-06-10T04:13:54.911Z,0.90
2019-06-10T04:16:28.350Z,0.80
2019-06-10T04:19:02.543Z,0.87
2019-06-10T04:21:39.993Z,0.80
2019-06-10T04:24:13.994Z,1.00
2019-06-10T04:26:47.146Z,1.00
2019-06-10T04:29:22.712Z,0.80
2019-06-10T04:31:57.228Z,1.10
2019-06-10T04:34:33.128Z,0.90
2019-06-10T04:37:05.947Z,0.80
2019-06-10T04:39:39.099Z,0.90
2019-06-10T04:42:13.029Z,0.80
2019-06-10T04:44:46.508Z,0.97
2019-06-10T04:47:20.562Z,0.80
2019-06-10T04:49:55.632Z,0.80
2019-06-10T04:52:32.793Z,0.90
2019-06-10T04:55:13.194Z,0.80
2019-06-10T04:57:47.988Z,0.73
2019-06-10T05:00:25.996Z,0.97
2019-06-10T05:02:58.636Z,1.17
2019-06-10T05:05:33.760Z,0.97
2019-06-10T05:08:10.098Z,0.70
2019-06-10T05:10:44.045Z,0.70
2019-06-10T05:13:19.260Z,0.87
2019-06-10T05:15:53.343Z,0.73
2019-06-10T05:18:30.279Z,0.93
2019-06-10T05:21:04.065Z,0.93
2019-06-10T05:23:39.678Z,0.80
2019-06-10T05:30:05.947Z,0.77
2019-06-10T05:32:38.953Z,1.07
2019-06-10T05:35:12.492Z,0.87
2019-06-10T05:37:45.732Z,1.50
2019-06-10T05:40:18.972Z,1.40
2019-06-10T05:42:52.883Z,1.03
2019-06-10T05:45:27.537Z,1.03
2019-06-10T05:48:02.858Z,1.50
2019-06-10T05:50:35.438Z,1.33
2019-06-10T05:53:09.269Z,1.47
2019-06-10T05:55:42.867Z,1.70
2019-06-10T05:58:16.148Z,1.20
2019-06-10T06:00:49.187Z,1.10
2019-06-10T06:03:25.781Z,1.30
2019-06-10T06:05:59.869Z,1.30
2019-06-10T06:08:35.303Z,1.50
2019-06-10T06:11:07.900Z,1.90
2019-06-10T06:13:42.992Z,1.30
2019-06-10T06:16:15.503Z,1.17
2019-06-10T06:18:48.682Z,1.20
2019-06-10T06:21:29.074Z,1.03
2019-06-10T06:23:57.036Z,1.03
2019-06-10T06:26:33.266Z,1.40
2019-06-10T06:29:04.472Z,2.23
2019-06-10T06:31:37.720Z,1.43
2019-06-10T06:34:13.641Z,2.00
2019-06-10T06:36:45.942Z,1.87
2019-06-10T06:39:19.014Z,2.23
2019-06-10T06:41:52.852Z,2.20
2019-06-10T06:44:26.115Z,1.53
2019-06-10T06:46:59.192Z,1.20
2019-06-10T06:49:32.845Z,1.13
2019-06-10T06:52:06.883Z,1.20
2019-06-10T06:54:42.309Z,1.50
2019-06-10T06:57:14.419Z,1.40
2019-06-10T06:59:47.493Z,1.67
2019-06-10T07:02:22.569Z,1.40
2019-06-10T07:04:55.393Z,1.77
2019-06-10T07:07:32.716Z,1.30
2019-06-10T07:10:06.177Z,1.40
2019-06-10T07:12:41.051Z,1.33
2019-06-10T07:15:14.627Z,1.33
2019-06-10T07:17:47.756Z,1.53
2019-06-10T07:20:22.921Z,1.37
2019-06-10T07:22:55.438Z,1.20
2019-06-10T07:25:28.381Z,1.30
2019-06-10T07:28:02.027Z,1.03
2019-06-10T07:30:37.655Z,1.40
2019-06-10T07:33:12.099Z,1.40
2019-06-10T07:35:45.407Z,1.43
2019-06-10T07:38:18.812Z,1.27
2019-06-10T07:40:52.987Z,1.50
2019-06-10T07:43:26.288Z,1.60
2019-06-10T07:45:59.261Z,1.50
2019-06-10T07:48:35.299Z,1.23
2019-06-10T07:51:08.325Z,1.10
2019-06-10T07:53:44.334Z,1.37
2019-06-10T07:56:15.862Z,1.57
2019-06-10T07:58:48.821Z,1.33
2019-06-10T08:01:22.986Z,1.10
2019-06-10T08:03:56.202Z,1.10
2019-06-10T08:06:29.513Z,1.47
2019-06-10T08:09:02.491Z,1.33
2019-06-10T08:11:35.517Z,1.40
2019-06-10T08:14:08.656Z,1.30
2019-06-10T08:16:44.802Z,1.70
2019-06-10T08:19:30.276Z,1.70
2019-06-10T08:21:50.635Z,1.30
2019-06-10T08:24:23.666Z,1.53
2019-06-10T08:26:56.604Z,1.50
2019-06-10T08:29:29.609Z,1.40
2019-06-10T08:32:03.291Z,1.50
2019-06-10T08:34:37.755Z,1.33
2019-06-10T08:37:13.621Z,1.50
2019-06-10T08:39:47.552Z,1.70
2019-06-10T08:42:23.072Z,1.37
2019-06-10T08:44:55.207Z,1.67
2019-06-10T08:47:28.237Z,2.20
2019-06-10T08:50:02.665Z,1.37
2019-06-10T08:52:51.885Z,1.67
2019-06-10T08:55:12.562Z,1.30
2019-06-10T08:57:48.795Z,1.57
2019-06-10T09:00:24.879Z,1.90
2019-06-10T09:02:54.677Z,1.33
2019-06-10T09:05:28.006Z,1.60
2019-06-10T09:08:02.788Z,1.77
2019-06-10T09:10:36.161Z,1.50
2019-06-10T09:13:09.218Z,1.93
2019-06-10T09:15:45.052Z,1.67
2019-06-10T09:18:19.980Z,1.87
2019-06-10T09:20:55.736Z,1.30
2019-06-10T09:23:26.477Z,1.50
2019-06-10T09:25:59.588Z,1.73
2019-06-10T09:28:32.961Z,1.80
2019-06-10T09:31:06.512Z,1.50
2019-06-10T09:33:41.167Z,1.97
2019-06-10T09:36:14.028Z,1.53
2019-06-10T09:38:49.083Z,1.90
2019-06-10T09:41:35.797Z,1.60
2019-06-10T09:43:57.190Z,1.77
2019-06-10T09:46:33.243Z,1.37
2019-06-10T09:49:12.710Z,1.83
2019-06-10T09:51:50.115Z,1.73
2019-06-10T09:54:22.671Z,1.50
2019-06-10T09:56:55.406Z,1.60
2019-06-10T09:59:28.460Z,1.80
2019-06-10T10:02:03.708Z,1.47
2019-06-10T10:04:37.585Z,1.87
2019-06-10T10:07:12.274Z,1.60
2019-06-10T10:09:51.408Z,1.83
2019-06-10T10:12:22.802Z,1.57
2019-06-10T10:14:56.497Z,1.60
2019-06-10T10:17:29.715Z,1.47
2019-06-10T10:20:03.207Z,1.60
2019-06-10T10:22:36.709Z,1.80
2019-06-10T10:25:10.487Z,1.70
2019-06-10T10:27:47.020Z,1.90
2019-06-10T10:30:19.718Z,1.93
2019-06-10T10:32:53.975Z,2.00
2019-06-10T10:35:32.499Z,1.80
2019-06-10T10:38:04.560Z,1.93
2019-06-10T10:40:37.751Z,1.70
2019-06-10T10:43:25.230Z,1.80
2019-06-10T10:45:47.862Z,1.50
2019-06-10T10:48:22.491Z,1.73
2019-06-10T10:50:56.106Z,1.50
2019-06-10T10:53:32.772Z,1.70
2019-06-10T10:56:09.543Z,1.70
2019-06-10T10:58:45.338Z,1.80
2019-06-10T11:01:17.521Z,1.97
2019-06-10T11:03:52.534Z,1.83
2019-06-10T11:06:25.210Z,1.90
2019-06-10T11:08:58.340Z,1.70
2019-06-10T11:11:33.294Z,1.80
2019-06-10T11:14:08.948Z,1.90
2019-06-10T11:16:43.103Z,1.87
2019-06-10T11:19:16.400Z,1.60
2019-06-10T11:21:49.578Z,1.40
2019-06-10T11:24:33.520Z,2.00
2019-06-10T11:26:58.311Z,2.10
2019-06-10T11:29:32.918Z,1.77
2019-06-10T11:32:06.939Z,1.90
2019-06-10T11:34:42.736Z,2.10
2019-06-10T11:37:14.637Z,1.70
2019-06-10T11:39:50.196Z,1.80
2019-06-10T11:42:23.456Z,1.90
2019-06-10T11:44:59.556Z,1.73
2019-06-10T11:47:32.896Z,2.00
2019-06-10T11:50:05.719Z,2.10
2019-06-10T11:52:38.940Z,1.60
2019-06-10T11:55:18.427Z,1.77
2019-06-10T11:57:47.828Z,1.53
2019-06-10T12:00:23.167Z,2.00
2019-06-10T12:02:58.563Z,1.83
2019-06-10T12:05:32.719Z,1.83
2019-06-10T12:08:05.151Z,1.90
2019-06-10T12:10:38.407Z,1.97
2019-06-10T12:13:13.343Z,1.50
2019-06-10T12:16:20.789Z,2.00
2019-06-10T12:18:22.883Z,2.27
2019-06-10T12:20:59.469Z,1.63
2019-06-10T12:23:32.794Z,1.80
2019-06-10T12:26:05.391Z,1.90
2019-06-10T12:28:38.792Z,1.67
2019-06-10T12:31:13.360Z,2.10
2019-06-10T12:33:46.738Z,1.70
2019-06-10T12:36:19.741Z,1.90
2019-06-10T12:38:57.513Z,1.50
2019-06-10T12:41:27.583Z,2.03
2019-06-10T12:44:02.929Z,1.80
2019-06-10T12:46:35.469Z,1.97
2019-06-10T12:49:12.835Z,2.10
2019-06-10T12:51:45.001Z,1.83
2019-06-10T12:54:17.955Z,1.63
2019-06-10T12:56:52.811Z,1.70
2019-06-10T12:59:25.511Z,1.83
2019-06-10T13:02:06.761Z,1.73
2019-06-10T13:04:33.892Z,1.93
2019-06-10T13:07:08.808Z,1.70
2019-06-10T13:09:44.681Z,1.67
2019-06-10T13:12:18.013Z,1.60
2019-06-10T13:14:52.060Z,1.80
2019-06-10T13:17:26.497Z,2.00
2019-06-10T13:19:59.602Z,2.30
2019-06-10T13:22:32.697Z,1.50
2019-06-10T13:25:07.215Z,1.60
2019-06-10T13:27:42.694Z,1.83
2019-06-10T13:30:15.219Z,1.90
2019-06-10T13:32:48.348Z,2.03
2019-06-10T13:35:23.048Z,1.70
2019-06-10T13:37:56.811Z,1.50
2019-06-10T13:40:31.891Z,1.50
2019-06-10T13:43:04.545Z,1.80
2019-06-10T13:45:37.964Z,1.63
2019-06-10T13:48:12.475Z,1.73
2019-06-10T13:50:45.510Z,1.50
2019-06-10T13:53:18.720Z,1.50
2019-06-10T13:56:02.545Z,1.80
2019-06-10T13:58:26.176Z,1.27
2019-06-10T14:00:59.832Z,1.30
2019-06-10T14:03:33.061Z,1.50
2019-06-10T14:06:23.490Z,1.77
2019-06-10T14:08:43.082Z,1.67
2019-06-10T14:11:15.384Z,1.60
2019-06-10T14:13:48.487Z,1.53
2019-06-10T14:16:23.392Z,1.77
2019-06-10T14:18:57.626Z,1.37
2019-06-10T14:21:32.897Z,1.60
2019-06-10T14:24:06.231Z,1.80
2019-06-10T14:26:42.946Z,1.70
2019-06-10T14:29:16.166Z,1.70
2019-06-10T14:31:49.233Z,1.40
2019-06-10T14:34:22.583Z,1.43
2019-06-10T14:36:57.545Z,1.60
2019-06-10T14:39:32.760Z,1.67
2019-06-10T14:42:06.943Z,1.80
2019-06-10T14:44:42.010Z,1.77
2019-06-10T14:47:16.893Z,1.50
2019-06-10T14:49:52.879Z,1.40
2019-06-10T14:52:24.940Z,1.73
2019-06-10T14:54:57.976Z,1.10
2019-06-10T14:57:33.317Z,1.60
2019-06-10T15:00:05.904Z,1.63
2019-06-10T15:02:38.863Z,1.90
2019-06-10T15:05:15.670Z,1.40
2019-06-10T15:07:47.339Z,1.33
2019-06-10T15:10:23.115Z,1.30
2019-06-10T15:12:55.131Z,1.50
2019-06-10T15:15:28.625Z,1.63
2019-06-10T15:18:02.929Z,1.33
2019-06-10T15:20:37.125Z,1.60
2019-06-10T15:23:11.503Z,1.17
2019-06-10T15:25:52.420Z,1.57
2019-06-10T15:28:20.432Z,1.40
2019-06-10T15:30:53.687Z,1.20
2019-06-10T15:33:27.172Z,1.20
2019-06-10T15:36:02.395Z,1.40
2019-06-10T15:38:35.246Z,1.33
2019-06-10T15:41:09.292Z,1.33
2019-06-10T15:43:42.572Z,1.20
2019-06-10T15:46:16.308Z,1.10
2019-06-10T15:48:53.886Z,1.10
2019-06-10T15:51:26.319Z,1.10
2019-06-10T15:53:59.448Z,1.63
2019-06-10T15:56:45.653Z,1.30
2019-06-10T15:59:06.934Z,1.10
2019-06-10T16:01:40.060Z,1.63
2019-06-10T16:04:15.706Z,1.40
2019-06-10T16:06:47.673Z,1.10
2019-06-10T16:09:20.688Z,1.70
2019-06-10T16:11:53.919Z,1.10
2019-06-10T16:14:27.137Z,1.30
2019-06-10T16:17:00.288Z,1.43
2019-06-10T16:19:33.227Z,1.30
2019-06-10T16:22:07.383Z,1.50
2019-06-10T16:24:42.274Z,1.67
2019-06-10T16:27:15.871Z,1.50
2019-06-10T16:29:48.919Z,1.60
2019-06-10T16:32:23.626Z,1.50
2019-06-10T16:34:56.776Z,1.40
2019-06-10T16:37:29.865Z,1.33
2019-06-10T16:40:03.290Z,1.20
2019-06-10T16:42:36.850Z,1.60
2019-06-10T16:45:12.808Z,1.40
2019-06-10T16:47:45.148Z,1.07
2019-06-10T16:50:19.439Z,1.73
2019-06-10T16:52:53.583Z,1.30
2019-06-10T16:55:27.206Z,1.63
2019-06-10T16:58:02.590Z,1.40
2019-06-10T17:00:35.097Z,1.50
2019-06-10T17:03:09.372Z,1.37
2019-06-10T17:05:42.686Z,1.57
2019-06-10T17:08:16.136Z,1.20
2019-06-10T17:10:49.443Z,1.40
2019-06-10T17:13:25.623Z,1.33
2019-06-10T17:15:58.432Z,1.40
2019-06-10T17:18:33.722Z,1.30
2019-06-10T17:21:06.063Z,1.23
2019-06-10T17:23:43.400Z,1.20
2019-06-10T17:26:16.059Z,1.10
2019-06-10T17:28:49.278Z,1.37
2019-06-10T17:31:25.713Z,1.10
2019-06-10T17:33:56.888Z,1.37
2019-06-10T17:36:32.683Z,1.30
2019-06-10T17:39:06.010Z,0.97
2019-06-10T17:41:39.287Z,1.10
2019-06-10T17:44:13.118Z,1.17
2019-06-10T17:46:46.486Z,1.60
2019-06-10T17:49:19.524Z,1.27
2019-06-10T17:51:52.686Z,1.10
2019-06-10T17:54:26.779Z,1.07
2019-06-10T17:57:02.210Z,1.03
2019-06-10T17:59:35.491Z,1.20
2019-06-10T18:02:09.133Z,1.20
2019-06-10T18:04:45.142Z,1.00
2019-06-10T18:07:18.573Z,0.90
2019-06-10T18:09:52.955Z,0.90
2019-06-10T18:12:26.232Z,1.10
2019-06-10T18:14:59.228Z,1.13
2019-06-10T18:17:34.873Z,1.03
2019-06-10T18:20:07.328Z,0.97
2019-06-10T18:22:40.217Z,0.90
2019-06-10T18:25:13.893Z,0.90
2019-06-10T18:27:46.991Z,1.00
2019-06-10T18:30:22.241Z,1.00
2019-06-10T18:32:55.356Z,1.03
2019-06-10T18:35:29.853Z,1.00
2019-06-10T18:38:02.864Z,0.90
2019-06-10T18:40:36.080Z,0.93
2019-06-10T18:43:12.035Z,0.73
2019-06-10T18:45:44.469Z,1.00
2019-06-10T18:48:17.599Z,1.10
2019-06-10T18:50:53.408Z,1.13
2019-06-10T18:53:25.137Z,0.70
2019-06-10T18:55:58.400Z,0.63
2019-06-10T18:58:34.313Z,0.80
2019-06-10T19:01:08.121Z,0.83
2019-06-10T19:03:42.942Z,1.00
2019-06-10T19:06:16.176Z,0.77
2019-06-10T19:08:49.304Z,0.80
2019-06-10T19:11:22.415Z,1.17
2019-06-10T19:13:55.507Z,1.03
2019-06-10T19:16:29.613Z,1.20
2019-06-10T19:19:03.120Z,1.17
2019-06-10T19:21:36.341Z,0.80
2019-06-10T19:24:09.735Z,1.70
2019-06-10T19:26:44.986Z,0.97
2019-06-10T19:29:29.929Z,1.00
2019-06-10T19:31:52.618Z,1.87
2019-06-10T19:34:26.066Z,1.00
2019-06-10T19:36:59.246Z,1.10
2019-06-10T19:39:36.427Z,1.70
2019-06-10T19:42:09.343Z,1.20
2019-06-10T19:44:45.564Z,1.50
2019-06-10T19:47:16.995Z,1.00
2019-06-10T19:49:52.117Z,0.70
2019-06-10T19:52:24.655Z,0.90
2019-06-10T19:54:57.746Z,1.00
2019-06-10T19:57:32.797Z,1.00
2019-06-10T20:00:11.668Z,1.20
2019-06-10T20:02:39.846Z,1.07
2019-06-10T20:05:13.207Z,1.10
2019-06-10T20:07:50.063Z,1.00
2019-06-10T20:10:23.068Z,1.03
2019-06-10T20:12:55.814Z,0.80
2019-06-10T20:15:29.211Z,0.90
2019-06-10T20:18:02.917Z,0.90
2019-06-10T20:20:36.310Z,0.80
2019-06-10T20:23:09.547Z,0.83
2019-06-10T20:25:44.297Z,0.70
2019-06-10T20:28:17.267Z,1.00
2019-06-10T20:30:50.237Z,0.97
2019-06-10T20:33:37.011Z,0.90
2019-06-10T20:36:17.761Z,0.77
2019-06-10T20:38:48.219Z,1.10
2019-06-10T20:41:19.004Z,1.10
2019-06-10T20:43:55.161Z,0.93
2019-06-10T20:46:28.299Z,0.90
2019-06-10T20:49:03.298Z,0.67
2019-06-10T20:51:48.904Z,0.60
2019-06-10T20:54:12.648Z,0.90
2019-06-10T20:56:47.315Z,0.50
2019-06-10T20:59:23.175Z,0.80
2019-06-10T21:01:54.658Z,0.50
2019-06-10T21:04:27.787Z,0.50
2019-06-10T21:07:02.458Z,0.70
2019-06-10T21:09:37.137Z,0.60
2019-06-10T21:12:10.181Z,1.10
2019-06-10T21:14:45.405Z,0.80
2019-06-10T21:17:17.753Z,0.90
2019-06-10T21:19:51.470Z,0.80
2019-06-10T21:22:25.151Z,0.77
2019-06-10T21:24:58.276Z,0.77
2019-06-10T21:27:32.850Z,0.40
2019-06-10T21:30:11.391Z,0.60
2019-06-10T21:32:41.679Z,0.60
2019-06-10T21:35:15.233Z,0.47
2019-06-10T21:37:48.319Z,0.80
2019-06-10T21:40:22.816Z,0.50
2019-06-10T21:42:56.131Z,0.50
2019-06-10T21:45:32.305Z,0.47
2019-06-10T21:48:04.721Z,0.80
2019-06-10T21:50:38.208Z,0.80
2019-06-10T21:53:13.036Z,0.70
2019-06-10T21:55:46.664Z,0.57
2019-06-10T21:58:22.360Z,0.30
2019-06-10T22:01:08.277Z,0.50
2019-06-10T22:03:32.127Z,0.60
2019-06-10T22:06:04.589Z,0.70
2019-06-10T22:08:37.658Z,0.63
2019-06-10T22:11:10.811Z,0.50
2019-06-10T22:13:44.072Z,0.50
2019-06-10T22:16:17.842Z,0.50
2019-06-10T22:18:50.989Z,0.50
2019-06-10T22:21:24.353Z,0.40
2019-06-10T22:23:57.254Z,0.50
2019-06-10T22:26:32.120Z,0.50
2019-06-10T22:29:04.674Z,0.40
2019-06-10T22:31:38.079Z,0.50
2019-06-10T22:34:12.612Z,0.67
2019-06-10T22:36:45.826Z,0.67
2019-06-10T22:39:18.972Z,0.30
2019-06-10T22:41:54.101Z,0.43
2019-06-10T22:44:35.956Z,0.60
2019-06-10T22:47:08.985Z,0.40
2019-06-10T22:49:43.194Z,0.60
2019-06-10T22:52:16.429Z,0.57
2019-06-10T22:54:49.677Z,0.70
2019-06-10T22:57:23.245Z,0.90
2019-06-10T22:59:57.706Z,0.43
2019-06-10T23:02:33.214Z,0.30
2019-06-10T23:05:05.779Z,0.40
2019-06-10T23:07:38.920Z,0.43
2019-06-10T23:10:12.690Z,0.50
2019-06-10T23:12:45.972Z,0.60
2019-06-10T23:15:19.403Z,0.40
2019-06-10T23:17:55.092Z,0.40
2019-06-10T23:20:27.020Z,0.43
2019-06-10T23:23:00.335Z,0.37
2019-06-10T23:25:33.572Z,0.60
2019-06-10T23:28:06.751Z,0.60
2019-06-10T23:30:42.332Z,0.40
2019-06-10T23:33:14.956Z,0.50
2019-06-10T23:35:47.868Z,0.40
2019-06-10T23:38:23.340Z,0.57
2019-06-10T23:40:55.352Z,0.60
2019-06-10T23:43:29.063Z,0.30
2019-06-10T23:46:04.096Z,0.60
2019-06-10T23:48:36.636Z,0.20
2019-06-10T23:51:11.971Z,0.40
2019-06-10T23:53:44.292Z,0.33
2019-06-10T23:56:17.727Z,0.60
2019-06-10T23:58:52.804Z,0.40
